createdAt,value
2022-08-05T22:12:18.851Z,101904.47
2022-08-05T22:14:57.517Z,101903.63
2022-08-05T22:17:27.718Z,101912.72
2022-08-05T22:20:11.278Z,101905.41
2022-08-05T22:22:57.061Z,101910.22
2022-08-05T22:26:10.334Z,101914.56
2022-08-05T22:28:33.394Z,101907.91
2022-08-05T22:31:06.507Z,101910.06
2022-08-05T22:33:57.425Z,101926.50
2022-08-05T22:36:26.218Z,101911.66
2022-08-05T22:38:56.063Z,101918.06
2022-08-05T22:42:09.415Z,101918.75
2022-08-05T22:44:19.254Z,101929.09
2022-08-05T22:46:50.955Z,101929.38
2022-08-05T22:49:46.131Z,101936.00
2022-08-05T22:52:16.710Z,101932.03
2022-08-05T22:55:00.166Z,101945.97
2022-08-05T22:57:36.187Z,101944.19
2022-08-05T23:00:12.059Z,101944.09
2022-08-05T23:02:48.617Z,101945.31
2022-08-05T23:05:18.645Z,101952.41
2022-08-05T23:07:50.233Z,101957.69
2022-08-05T23:10:20.939Z,101959.25
2022-08-05T23:12:55.592Z,101957.41
2022-08-05T23:15:35.252Z,101963.59
2022-08-05T23:18:11.598Z,101948.22
2022-08-05T23:20:43.155Z,101954.19
2022-08-05T23:23:13.213Z,101963.25
2022-08-05T23:25:51.258Z,101966.53
2022-08-05T23:28:23.919Z,101969.56
2022-08-05T23:31:07.005Z,101971.84
2022-08-05T23:34:03.692Z,101967.25
2022-08-05T23:36:40.244Z,101974.53
2022-08-05T23:39:17.278Z,101966.78
2022-08-05T23:41:53.887Z,101974.06
2022-08-05T23:44:27.994Z,101982.00
2022-08-05T23:47:14.316Z,101978.22
2022-08-05T23:49:46.256Z,101984.13
2022-08-05T23:52:28.782Z,101986.28
2022-08-05T23:55:02.091Z,101981.44
2022-08-05T23:57:35.775Z,101994.13
